Terminal Aerodrome Forecast
Issued by NWS

Home | Current Version | Previous Version | Text Only | Print | Product List | Glossary On
Versions: 1 2 3 4 5 6 7 8 9 10 11 12 13
000
FTUS45 KPIH 192320
TAFSUN
TAF
KSUN 192320Z 2000/2106 21011KT P6SM SCT070 SCT150
     FM200040 31010KT P6SM SKC
     FM201800 13008KT P6SM SKC
     FM202100 21011KT P6SM SKC
     FM210400 31010KT P6SM SKC
      AMD LTD TO CLD VIS AND WIND 2005/2013=

USA.gov is the U.S. government's official web portal to all federal, state and local government web resources and services.